sensor_id;sensor_type;location;lat;lon;timestamp;pressure;altitude;pressure_sealevel;temperature;humidity
36798;BME280;22748;8.426;99.512;2023-02-17T00:02:30;100761.34;;;28.79;58.09
36798;BME280;22748;8.426;99.512;2023-02-17T00:05:02;100778.66;;;28.70;58.21
36798;BME280;22748;8.426;99.512;2023-02-17T00:07:33;100775.59;;;28.73;58.49
36798;BME280;22748;8.426;99.512;2023-02-17T00:10:05;100778.91;;;28.75;58.32
36798;BME280;22748;8.426;99.512;2023-02-17T00:12:36;100788.81;;;28.68;58.62
36798;BME280;22748;8.426;99.512;2023-02-17T00:15:08;100790.03;;;28.72;58.69
36798;BME280;22748;8.426;99.512;2023-02-17T00:17:41;100801.22;;;28.69;59.13
36798;BME280;22748;8.426;99.512;2023-02-17T00:20:12;100792.97;;;28.70;58.78
36798;BME280;22748;8.426;99.512;2023-02-17T00:22:44;100792.72;;;28.72;58.93
36798;BME280;22748;8.426;99.512;2023-02-17T00:25:14;100795.84;;;28.76;58.65
36798;BME280;22748;8.426;99.512;2023-02-17T00:27:45;100814.47;;;28.77;58.59
36798;BME280;22748;8.426;99.512;2023-02-17T00:30:15;100795.03;;;28.75;59.25
36798;BME280;22748;8.426;99.512;2023-02-17T00:33:02;100800.78;;;28.72;59.41
36798;BME280;22748;8.426;99.512;2023-02-17T00:35:31;100807.84;;;28.73;59.45
36798;BME280;22748;8.426;99.512;2023-02-17T00:38:02;100804.09;;;28.74;58.98
36798;BME280;22748;8.426;99.512;2023-02-17T00:40:33;100815.72;;;28.75;59.18
36798;BME280;22748;8.426;99.512;2023-02-17T00:43:02;100815.28;;;28.78;59.08
36798;BME280;22748;8.426;99.512;2023-02-17T00:45:34;100821.09;;;28.81;59.53
36798;BME280;22748;8.426;99.512;2023-02-17T00:48:08;100823.78;;;28.81;59.11
36798;BME280;22748;8.426;99.512;2023-02-17T00:50:38;100833.09;;;28.85;59.60
36798;BME280;22748;8.426;99.512;2023-02-17T00:53:08;100834.53;;;28.88;59.36
36798;BME280;22748;8.426;99.512;2023-02-17T00:55:38;100826.25;;;28.89;59.88
36798;BME280;22748;8.426;99.512;2023-02-17T00:58:07;100829.38;;;28.93;59.09
36798;BME280;22748;8.426;99.512;2023-02-17T01:00:37;100831.88;;;28.95;58.74
36798;BME280;22748;8.426;99.512;2023-02-17T01:03:12;100843.44;;;28.95;58.86
36798;BME280;22748;8.426;99.512;2023-02-17T01:05:46;100848.00;;;28.95;59.03
36798;BME280;22748;8.426;99.512;2023-02-17T01:08:16;100848.81;;;28.95;58.86
36798;BME280;22748;8.426;99.512;2023-02-17T01:10:47;100852.13;;;28.97;58.78
36798;BME280;22748;8.426;99.512;2023-02-17T01:13:21;100861.66;;;29.00;58.75
36798;BME280;22748;8.426;99.512;2023-02-17T01:15:53;100859.59;;;29.02;58.83
36798;BME280;22748;8.426;99.512;2023-02-17T01:18:27;100860.84;;;29.06;58.99
36798;BME280;22748;8.426;99.512;2023-02-17T01:20:56;100865.16;;;29.07;59.04
36798;BME280;22748;8.426;99.512;2023-02-17T01:23:28;100863.13;;;29.09;58.76
36798;BME280;22748;8.426;99.512;2023-02-17T01:26:01;100859.00;;;29.13;58.74
36798;BME280;22748;8.426;99.512;2023-02-17T01:28:30;100869.53;;;29.01;59.25
36798;BME280;22748;8.426;99.512;2023-02-17T01:31:10;100862.91;;;29.04;58.88
36798;BME280;22748;8.426;99.512;2023-02-17T01:33:41;100878.66;;;29.13;59.04
36798;BME280;22748;8.426;99.512;2023-02-17T01:36:12;100873.91;;;29.22;58.54
36798;BME280;22748;8.426;99.512;2023-02-17T01:38:44;100876.19;;;29.25;58.15
36798;BME280;22748;8.426;99.512;2023-02-17T01:41:16;100874.75;;;29.09;58.56
36798;BME280;22748;8.426;99.512;2023-02-17T01:44:08;100875.78;;;29.22;58.05
36798;BME280;22748;8.426;99.512;2023-02-17T01:46:38;100877.66;;;29.35;57.63
36798;BME280;22748;8.426;99.512;2023-02-17T01:49:29;100872.88;;;29.37;57.78
36798;BME280;22748;8.426;99.512;2023-02-17T01:52:06;100877.03;;;29.46;57.64
36798;BME280;22748;8.426;99.512;2023-02-17T01:54:41;100881.59;;;29.52;57.63
36798;BME280;22748;8.426;99.512;2023-02-17T01:57:12;100890.47;;;29.59;57.09
36798;BME280;22748;8.426;99.512;2023-02-17T01:59:45;100896.47;;;29.61;57.34
36798;BME280;22748;8.426;99.512;2023-02-17T02:02:16;100898.53;;;29.66;57.21
36798;BME280;22748;8.426;99.512;2023-02-17T02:05:00;100908.50;;;29.72;57.25
36798;BME280;22748;8.426;99.512;2023-02-17T02:07:31;100903.97;;;29.72;57.02
36798;BME280;22748;8.426;99.512;2023-02-17T02:10:01;100892.97;;;29.74;56.57
36798;BME280;22748;8.426;99.512;2023-02-17T02:12:34;100896.09;;;29.71;56.87
36798;BME280;22748;8.426;99.512;2023-02-17T02:15:07;100900.03;;;29.75;57.02
36798;BME280;22748;8.426;99.512;2023-02-17T02:17:47;100900.03;;;29.82;57.23
36798;BME280;22748;8.426;99.512;2023-02-17T02:23:39;100898.97;;;29.96;56.59
36798;BME280;22748;8.426;99.512;2023-02-17T02:29:31;100896.06;;;30.04;57.02
36798;BME280;22748;8.426;99.512;2023-02-17T02:32:22;100896.66;;;30.13;56.62
36798;BME280;22748;8.426;99.512;2023-02-17T02:35:02;100908.22;;;30.20;56.46
36798;BME280;22748;8.426;99.512;2023-02-17T02:37:38;100904.53;;;30.14;56.42
36798;BME280;22748;8.426;99.512;2023-02-17T02:40:10;100905.13;;;30.23;55.84
36798;BME280;22748;8.426;99.512;2023-02-17T02:42:41;100902.22;;;30.25;56.08
36798;BME280;22748;8.426;99.512;2023-02-17T02:45:13;100900.97;;;30.27;56.03
36798;BME280;22748;8.426;99.512;2023-02-17T02:47:50;100904.69;;;30.33;55.82
36798;BME280;22748;8.426;99.512;2023-02-17T02:50:26;100895.59;;;30.34;55.35
36798;BME280;22748;8.426;99.512;2023-02-17T02:53:07;100897.22;;;30.35;55.45
36798;BME280;22748;8.426;99.512;2023-02-17T02:55:50;100904.28;;;30.43;55.59
36798;BME280;22748;8.426;99.512;2023-02-17T02:58:30;100905.50;;;30.47;55.33
36798;BME280;22748;8.426;99.512;2023-02-17T03:01:07;100894.50;;;30.48;54.65
36798;BME280;22748;8.426;99.512;2023-02-17T03:03:44;100908.38;;;30.52;54.96
36798;BME280;22748;8.426;99.512;2023-02-17T03:06:18;100907.72;;;30.57;54.23
36798;BME280;22748;8.426;99.512;2023-02-17T03:08:54;100909.56;;;30.63;54.37
36798;BME280;22748;8.426;99.512;2023-02-17T03:11:26;100908.28;;;30.72;54.34
36798;BME280;22748;8.426;99.512;2023-02-17T03:14:02;100904.13;;;30.76;53.83
36798;BME280;22748;8.426;99.512;2023-02-17T03:16:34;100909.31;;;30.78;53.85
36798;BME280;22748;8.426;99.512;2023-02-17T03:19:07;100920.91;;;30.78;53.89
36798;BME280;22748;8.426;99.512;2023-02-17T03:21:38;100916.53;;;30.84;53.79
36798;BME280;22748;8.426;99.512;2023-02-17T03:24:10;100919.88;;;30.86;53.52
36798;BME280;22748;8.426;99.512;2023-02-17T03:26:40;100927.31;;;30.84;53.25
36798;BME280;22748;8.426;99.512;2023-02-17T03:29:11;100919.22;;;30.84;52.97
36798;BME280;22748;8.426;99.512;2023-02-17T03:31:42;100916.31;;;30.85;52.76
36798;BME280;22748;8.426;99.512;2023-02-17T03:34:14;100918.63;;;30.88;52.44
36798;BME280;22748;8.426;99.512;2023-02-17T03:36:45;100917.19;;;30.86;52.73
36798;BME280;22748;8.426;99.512;2023-02-17T03:39:14;100910.28;;;30.90;52.03
36798;BME280;22748;8.426;99.512;2023-02-17T03:41:43;100916.69;;;30.95;52.43
36798;BME280;22748;8.426;99.512;2023-02-17T03:44:18;100917.72;;;31.01;51.70
36798;BME280;22748;8.426;99.512;2023-02-17T03:46:48;100913.72;;;31.10;51.92
36798;BME280;22748;8.426;99.512;2023-02-17T03:49:22;100917.59;;;31.21;51.66
36798;BME280;22748;8.426;99.512;2023-02-17T03:51:52;100915.88;;;31.27;51.71
36798;BME280;22748;8.426;99.512;2023-02-17T03:54:25;100912.50;;;31.31;52.34
36798;BME280;22748;8.426;99.512;2023-02-17T03:56:56;100903.38;;;31.32;52.07
36798;BME280;22748;8.426;99.512;2023-02-17T03:59:27;100902.78;;;31.30;51.92
36798;BME280;22748;8.426;99.512;2023-02-17T04:01:57;100899.00;;;31.31;51.96
36798;BME280;22748;8.426;99.512;2023-02-17T04:04:30;100901.97;;;31.30;52.53
36798;BME280;22748;8.426;99.512;2023-02-17T04:07:01;100890.06;;;31.37;52.46
36798;BME280;22748;8.426;99.512;2023-02-17T04:09:36;100889.41;;;31.42;52.26
36798;BME280;22748;8.426;99.512;2023-02-17T04:12:08;100884.63;;;31.44;51.72
36798;BME280;22748;8.426;99.512;2023-02-17T04:14:39;100878.81;;;31.47;51.65
36798;BME280;22748;8.426;99.512;2023-02-17T04:17:08;100870.50;;;31.49;51.91
36798;BME280;22748;8.426;99.512;2023-02-17T04:19:40;100868.69;;;31.43;51.97
36798;BME280;22748;8.426;99.512;2023-02-17T04:22:11;100876.56;;;31.37;52.25
36798;BME280;22748;8.426;99.512;2023-02-17T04:24:43;100877.00;;;31.34;52.05
36798;BME280;22748;8.426;99.512;2023-02-17T04:27:12;100869.94;;;31.33;51.80
36798;BME280;22748;8.426;99.512;2023-02-17T04:29:43;100859.94;;;31.41;51.76
36798;BME280;22748;8.426;99.512;2023-02-17T04:32:14;100858.88;;;31.42;52.14
36798;BME280;22748;8.426;99.512;2023-02-17T04:34:45;100853.47;;;31.42;51.72
36798;BME280;22748;8.426;99.512;2023-02-17T04:37:16;100850.19;;;31.40;51.96
36798;BME280;22748;8.426;99.512;2023-02-17T04:39:46;100856.16;;;31.48;52.11
36798;BME280;22748;8.426;99.512;2023-02-17T04:42:15;100850.47;;;31.56;51.60
36798;BME280;22748;8.426;99.512;2023-02-17T04:44:45;100848.09;;;31.67;51.18
36798;BME280;22748;8.426;99.512;2023-02-17T04:47:16;100838.28;;;31.72;50.62
36798;BME280;22748;8.426;99.512;2023-02-17T04:49:50;100841.50;;;31.81;50.80
36798;BME280;22748;8.426;99.512;2023-02-17T04:52:21;100840.63;;;31.87;50.91
36798;BME280;22748;8.426;99.512;2023-02-17T04:54:52;100832.28;;;31.89;51.01
36798;BME280;22748;8.426;99.512;2023-02-17T04:57:23;100841.00;;;31.91;50.47
36798;BME280;22748;8.426;99.512;2023-02-17T04:59:53;100833.50;;;31.93;50.72
36798;BME280;22748;8.426;99.512;2023-02-17T05:02:24;100826.88;;;31.89;50.65
36798;BME280;22748;8.426;99.512;2023-02-17T05:04:59;100822.31;;;31.89;50.64
36798;BME280;22748;8.426;99.512;2023-02-17T05:07:29;100817.72;;;31.90;50.78
36798;BME280;22748;8.426;99.512;2023-02-17T05:09:59;100813.53;;;31.94;50.73
36798;BME280;22748;8.426;99.512;2023-02-17T05:12:28;100818.94;;;31.94;50.99
36798;BME280;22748;8.426;99.512;2023-02-17T05:14:59;100809.03;;;31.88;50.62
36798;BME280;22748;8.426;99.512;2023-02-17T05:17:29;100806.09;;;31.89;51.17
36798;BME280;22748;8.426;99.512;2023-02-17T05:20:00;100794.63;;;31.94;50.63
36798;BME280;22748;8.426;99.512;2023-02-17T05:22:31;100789.41;;;31.99;49.92
36798;BME280;22748;8.426;99.512;2023-02-17T05:25:01;100787.88;;;32.03;49.87
36798;BME280;22748;8.426;99.512;2023-02-17T05:27:34;100775.56;;;32.07;49.85
36798;BME280;22748;8.426;99.512;2023-02-17T05:30:05;100775.13;;;32.10;49.85
36798;BME280;22748;8.426;99.512;2023-02-17T05:32:37;100778.88;;;32.09;49.46
36798;BME280;22748;8.426;99.512;2023-02-17T05:35:10;100778.44;;;32.12;49.12
36798;BME280;22748;8.426;99.512;2023-02-17T05:37:41;100757.72;;;32.06;48.47
36798;BME280;22748;8.426;99.512;2023-02-17T05:40:13;100760.13;;;32.14;48.75
36798;BME280;22748;8.426;99.512;2023-02-17T05:42:46;100748.25;;;32.15;48.70
36798;BME280;22748;8.426;99.512;2023-02-17T05:45:16;100748.38;;;32.21;49.00
36798;BME280;22748;8.426;99.512;2023-02-17T05:47:48;100744.75;;;32.27;48.42
36798;BME280;22748;8.426;99.512;2023-02-17T05:50:22;100730.34;;;32.33;48.06
36798;BME280;22748;8.426;99.512;2023-02-17T05:52:53;100722.34;;;32.38;48.56
36798;BME280;22748;8.426;99.512;2023-02-17T05:55:23;100730.25;;;32.39;48.57
36798;BME280;22748;8.426;99.512;2023-02-17T05:57:54;100720.00;;;32.30;48.33
36798;BME280;22748;8.426;99.512;2023-02-17T06:00:25;100715.78;;;32.34;48.80
36798;BME280;22748;8.426;99.512;2023-02-17T06:02:56;100710.63;;;32.44;48.92
36798;BME280;22748;8.426;99.512;2023-02-17T06:05:28;100703.03;;;32.53;48.59
36798;BME280;22748;8.426;99.512;2023-02-17T06:07:59;100691.66;;;32.63;48.04
36798;BME280;22748;8.426;99.512;2023-02-17T06:10:30;100688.63;;;32.71;48.14
36798;BME280;22748;8.426;99.512;2023-02-17T06:13:01;100677.31;;;32.74;48.12
36798;BME280;22748;8.426;99.512;2023-02-17T06:15:31;100673.44;;;32.70;47.33
36798;BME280;22748;8.426;99.512;2023-02-17T06:18:04;100677.44;;;32.67;47.56
36798;BME280;22748;8.426;99.512;2023-02-17T06:20:37;100665.81;;;32.67;47.23
36798;BME280;22748;8.426;99.512;2023-02-17T06:23:06;100666.84;;;32.66;47.43
36798;BME280;22748;8.426;99.512;2023-02-17T06:25:37;100660.25;;;32.62;47.30
36798;BME280;22748;8.426;99.512;2023-02-17T06:28:07;100659.66;;;32.59;47.30
36798;BME280;22748;8.426;99.512;2023-02-17T06:30:38;100651.31;;;32.61;47.29
36798;BME280;22748;8.426;99.512;2023-02-17T06:33:09;100646.72;;;32.62;47.28
36798;BME280;22748;8.426;99.512;2023-02-17T06:35:47;100640.63;;;32.54;47.07
36798;BME280;22748;8.426;99.512;2023-02-17T06:38:20;100635.06;;;32.49;47.23
36798;BME280;22748;8.426;99.512;2023-02-17T06:40:50;100628.22;;;32.47;47.01
36798;BME280;22748;8.426;99.512;2023-02-17T06:43:22;100613.81;;;32.53;46.88
36798;BME280;22748;8.426;99.512;2023-02-17T06:45:55;100607.59;;;32.64;47.34
36798;BME280;22748;8.426;99.512;2023-02-17T06:48:25;100604.78;;;32.71;46.60
36798;BME280;22748;8.426;99.512;2023-02-17T06:51:00;100604.91;;;32.76;46.40
36798;BME280;22748;8.426;99.512;2023-02-17T06:53:30;100599.13;;;32.84;46.72
36798;BME280;22748;8.426;99.512;2023-02-17T06:56:00;100592.19;;;32.88;46.43
36798;BME280;22748;8.426;99.512;2023-02-17T06:58:31;100577.09;;;32.92;46.11
36798;BME280;22748;8.426;99.512;2023-02-17T07:01:04;100579.59;;;32.94;45.84
36798;BME280;22748;8.426;99.512;2023-02-17T07:03:35;100579.44;;;33.00;45.18
36798;BME280;22748;8.426;99.512;2023-02-17T07:06:08;100573.59;;;33.04;45.57
36798;BME280;22748;8.426;99.512;2023-02-17T07:08:37;100561.09;;;33.03;46.21
36798;BME280;22748;8.426;99.512;2023-02-17T07:11:07;100560.06;;;33.04;46.01
36798;BME280;22748;8.426;99.512;2023-02-17T07:13:39;100560.63;;;33.06;45.63
36798;BME280;22748;8.426;99.512;2023-02-17T07:16:12;100546.91;;;32.95;45.40
36798;BME280;22748;8.426;99.512;2023-02-17T07:18:43;100551.72;;;32.93;45.65
36798;BME280;22748;8.426;99.512;2023-02-17T07:21:15;100552.19;;;32.90;45.54
36798;BME280;22748;8.426;99.512;2023-02-17T07:23:48;100550.53;;;32.89;45.56
36798;BME280;22748;8.426;99.512;2023-02-17T07:26:19;100561.84;;;32.86;45.41
36798;BME280;22748;8.426;99.512;2023-02-17T07:28:48;100548.00;;;32.71;45.92
36798;BME280;22748;8.426;99.512;2023-02-17T07:31:17;100542.09;;;32.74;45.79
36798;BME280;22748;8.426;99.512;2023-02-17T07:33:48;100538.34;;;32.75;45.91
36798;BME280;22748;8.426;99.512;2023-02-17T07:36:21;100528.09;;;32.77;46.30
36798;BME280;22748;8.426;99.512;2023-02-17T07:38:51;100534.81;;;32.86;46.97
36798;BME280;22748;8.426;99.512;2023-02-17T07:41:31;100532.34;;;32.85;46.81
36798;BME280;22748;8.426;99.512;2023-02-17T07:44:01;100518.66;;;32.91;46.79
36798;BME280;22748;8.426;99.512;2023-02-17T07:46:33;100518.19;;;32.94;46.73
36798;BME280;22748;8.426;99.512;2023-02-17T07:49:07;100522.53;;;32.95;46.73
36798;BME280;22748;8.426;99.512;2023-02-17T07:51:40;100515.59;;;32.99;46.28
36798;BME280;22748;8.426;99.512;2023-02-17T07:54:10;100511.72;;;32.95;46.51
36798;BME280;22748;8.426;99.512;2023-02-17T07:56:40;100518.63;;;33.03;46.75
36798;BME280;22748;8.426;99.512;2023-02-17T07:59:10;100513.81;;;33.05;46.59
36798;BME280;22748;8.426;99.512;2023-02-17T08:01:42;100516.88;;;33.09;46.56
36798;BME280;22748;8.426;99.512;2023-02-17T08:04:12;100518.88;;;33.02;46.28
36798;BME280;22748;8.426;99.512;2023-02-17T08:06:45;100521.16;;;32.93;46.53
36798;BME280;22748;8.426;99.512;2023-02-17T08:09:16;100515.47;;;32.94;46.53
36798;BME280;22748;8.426;99.512;2023-02-17T08:11:58;100516.19;;;33.02;46.36
36798;BME280;22748;8.426;99.512;2023-02-17T08:14:42;100512.41;;;33.03;46.54
36798;BME280;22748;8.426;99.512;2023-02-17T08:17:13;100502.16;;;33.05;47.16
36798;BME280;22748;8.426;99.512;2023-02-17T08:19:43;100501.97;;;33.06;46.63
36798;BME280;22748;8.426;99.512;2023-02-17T08:22:16;100506.91;;;32.97;46.57
36798;BME280;22748;8.426;99.512;2023-02-17T08:24:47;100499.47;;;33.05;46.54
36798;BME280;22748;8.426;99.512;2023-02-17T08:27:18;100499.56;;;33.10;46.50
36798;BME280;22748;8.426;99.512;2023-02-17T08:29:52;100498.03;;;33.14;46.51
36798;BME280;22748;8.426;99.512;2023-02-17T08:32:23;100495.44;;;33.19;46.11
36798;BME280;22748;8.426;99.512;2023-02-17T08:34:55;100493.63;;;33.25;46.35
36798;BME280;22748;8.426;99.512;2023-02-17T08:37:28;100494.47;;;33.25;45.72
36798;BME280;22748;8.426;99.512;2023-02-17T08:39:59;100494.47;;;33.25;45.28
36798;BME280;22748;8.426;99.512;2023-02-17T08:42:31;100488.56;;;33.28;45.39
36798;BME280;22748;8.426;99.512;2023-02-17T08:45:03;100489.53;;;33.22;45.47
36798;BME280;22748;8.426;99.512;2023-02-17T08:47:34;100504.03;;;33.16;45.17
36798;BME280;22748;8.426;99.512;2023-02-17T08:50:05;100498.03;;;33.14;45.34
36798;BME280;22748;8.426;99.512;2023-02-17T08:52:39;100506.63;;;32.99;45.63
36798;BME280;22748;8.426;99.512;2023-02-17T08:55:10;100501.59;;;33.03;45.80
36798;BME280;22748;8.426;99.512;2023-02-17T08:57:39;100505.38;;;33.02;45.91
36798;BME280;22748;8.426;99.512;2023-02-17T09:00:10;100489.25;;;33.07;45.49
36798;BME280;22748;8.426;99.512;2023-02-17T09:02:42;100487.72;;;33.11;45.58
36798;BME280;22748;8.426;99.512;2023-02-17T09:05:14;100489.34;;;33.12;45.76
36798;BME280;22748;8.426;99.512;2023-02-17T09:07:45;100494.28;;;33.15;45.78
36798;BME280;22748;8.426;99.512;2023-02-17T09:10:16;100496.25;;;33.19;45.49
36798;BME280;22748;8.426;99.512;2023-02-17T09:12:46;100495.44;;;33.19;45.70
36798;BME280;22748;8.426;99.512;2023-02-17T09:15:19;100511.69;;;33.19;45.76
36798;BME280;22748;8.426;99.512;2023-02-17T09:17:50;100507.56;;;33.16;45.25
36798;BME280;22748;8.426;99.512;2023-02-17T09:20:20;100498.41;;;33.06;45.15
36798;BME280;22748;8.426;99.512;2023-02-17T09:22:53;100511.72;;;32.95;45.64
36798;BME280;22748;8.426;99.512;2023-02-17T09:25:24;100513.34;;;32.96;46.09
36798;BME280;22748;8.426;99.512;2023-02-17T09:27:57;100517.13;;;32.95;46.12
36798;BME280;22748;8.426;99.512;2023-02-17T09:30:28;100521.72;;;32.95;45.99
36798;BME280;22748;8.426;99.512;2023-02-17T09:32:58;100515.97;;;32.91;46.40
36798;BME280;22748;8.426;99.512;2023-02-17T09:35:28;100517.59;;;32.92;46.17
36798;BME280;22748;8.426;99.512;2023-02-17T09:38:00;100521.88;;;32.88;46.50
36798;BME280;22748;8.426;99.512;2023-02-17T09:40:37;100515.97;;;32.91;46.73
36798;BME280;22748;8.426;99.512;2023-02-17T09:43:14;100520.31;;;32.92;46.29
36798;BME280;22748;8.426;99.512;2023-02-17T09:45:48;100524.91;;;32.92;46.96
36798;BME280;22748;8.426;99.512;2023-02-17T09:48:21;100530.31;;;32.92;46.68
36798;BME280;22748;8.426;99.512;2023-02-17T09:50:58;100527.97;;;32.95;46.39
36798;BME280;22748;8.426;99.512;2023-02-17T09:53:37;100528.28;;;32.99;46.33
36798;BME280;22748;8.426;99.512;2023-02-17T09:56:12;100531.25;;;32.97;46.78
36798;BME280;22748;8.426;99.512;2023-02-17T09:58:46;100543.50;;;32.88;46.82
36798;BME280;22748;8.426;99.512;2023-02-17T10:01:21;100536.94;;;32.84;46.61
36798;BME280;22748;8.426;99.512;2023-02-17T10:03:56;100545.63;;;32.86;46.75
36798;BME280;22748;8.426;99.512;2023-02-17T10:06:31;100542.78;;;32.81;46.97
36798;BME280;22748;8.426;99.512;2023-02-17T10:09:11;100552.56;;;32.82;46.74
36798;BME280;22748;8.426;99.512;2023-02-17T10:11:50;100552.34;;;32.72;46.88
36798;BME280;22748;8.426;99.512;2023-02-17T10:14:26;100549.63;;;32.72;46.75
36798;BME280;22748;8.426;99.512;2023-02-17T10:17:03;100559.75;;;32.65;47.03
36798;BME280;22748;8.426;99.512;2023-02-17T10:19:43;100565.63;;;32.62;47.00
36798;BME280;22748;8.426;99.512;2023-02-17T10:22:19;100567.97;;;32.70;46.68
36798;BME280;22748;8.426;99.512;2023-02-17T10:24:57;100570.81;;;32.63;46.75
36798;BME280;22748;8.426;99.512;2023-02-17T10:27:35;100569.72;;;32.64;46.61
36798;BME280;22748;8.426;99.512;2023-02-17T10:30:29;100574.81;;;32.61;46.67
36798;BME280;22748;8.426;99.512;2023-02-17T10:33:11;100580.81;;;32.63;46.56
36798;BME280;22748;8.426;99.512;2023-02-17T10:35:49;100580.91;;;32.68;46.67
36798;BME280;22748;8.426;99.512;2023-02-17T10:38:32;100580.53;;;32.64;46.68
36798;BME280;22748;8.426;99.512;2023-02-17T10:41:10;100586.81;;;32.65;46.38
36798;BME280;22748;8.426;99.512;2023-02-17T10:43:43;100579.16;;;32.62;46.79
36798;BME280;22748;8.426;99.512;2023-02-17T10:46:16;100589.72;;;32.63;46.52
36798;BME280;22748;8.426;99.512;2023-02-17T10:48:49;100605.38;;;32.61;46.71
36798;BME280;22748;8.426;99.512;2023-02-17T10:51:23;100606.88;;;32.57;46.93
36798;BME280;22748;8.426;99.512;2023-02-17T10:53:58;100612.06;;;32.58;47.04
36798;BME280;22748;8.426;99.512;2023-02-17T10:56:40;100614.28;;;32.62;47.23
36798;BME280;22748;8.426;99.512;2023-02-17T10:59:20;100617.00;;;32.62;46.83
36798;BME280;22748;8.426;99.512;2023-02-17T11:01:58;100632.75;;;32.65;46.89
36798;BME280;22748;8.426;99.512;2023-02-17T11:04:40;100633.34;;;32.67;47.10
36798;BME280;22748;8.426;99.512;2023-02-17T11:07:11;100635.81;;;32.68;46.95
36798;BME280;22748;8.426;99.512;2023-02-17T11:09:48;100643.09;;;32.68;47.25
36798;BME280;22748;8.426;99.512;2023-02-17T11:12:24;100640.41;;;32.68;46.79
36798;BME280;22748;8.426;99.512;2023-02-17T11:15:02;100656.63;;;32.68;47.39
36798;BME280;22748;8.426;99.512;2023-02-17T11:17:37;100650.19;;;32.69;47.05
36798;BME280;22748;8.426;99.512;2023-02-17T11:20:28;100655.59;;;32.69;47.04
36798;BME280;22748;8.426;99.512;2023-02-17T11:23:15;100651.81;;;32.70;47.39
36798;BME280;22748;8.426;99.512;2023-02-17T11:25:58;100659.91;;;32.70;47.24
36798;BME280;22748;8.426;99.512;2023-02-17T11:28:33;100665.31;;;32.70;47.51
36798;BME280;22748;8.426;99.512;2023-02-17T11:31:06;100664.72;;;32.68;47.13
36798;BME280;22748;8.426;99.512;2023-02-17T11:33:39;100666.63;;;32.67;47.12
36798;BME280;22748;8.426;99.512;2023-02-17T11:36:23;100674.13;;;32.65;47.07
36798;BME280;22748;8.426;99.512;2023-02-17T11:38:55;100679.31;;;32.67;47.47
36798;BME280;22748;8.426;99.512;2023-02-17T11:41:38;100678.72;;;32.65;47.83
36798;BME280;22748;8.426;99.512;2023-02-17T11:44:20;100682.25;;;32.65;47.44
36798;BME280;22748;8.426;99.512;2023-02-17T11:47:01;100682.47;;;32.64;47.82
36798;BME280;22748;8.426;99.512;2023-02-17T11:49:49;100685.44;;;32.62;47.96
36798;BME280;22748;8.426;99.512;2023-02-17T11:52:37;100692.47;;;32.63;48.27
36798;BME280;22748;8.426;99.512;2023-02-17T11:55:17;100701.66;;;32.62;48.37
36798;BME280;22748;8.426;99.512;2023-02-17T11:58:04;100706.91;;;32.57;48.06
36798;BME280;22748;8.426;99.512;2023-02-17T12:00:51;100705.75;;;32.53;47.69
36798;BME280;22748;8.426;99.512;2023-02-17T12:03:44;100708.50;;;32.46;48.23
36798;BME280;22748;8.426;99.512;2023-02-17T12:06:23;100710.63;;;32.44;48.33
36798;BME280;22748;8.426;99.512;2023-02-17T12:09:11;100713.19;;;32.39;48.47
36798;BME280;22748;8.426;99.512;2023-02-17T12:11:50;100722.34;;;32.38;48.47
36798;BME280;22748;8.426;99.512;2023-02-17T12:14:40;100720.25;;;32.40;48.71
36798;BME280;22748;8.426;99.512;2023-02-17T12:17:20;100727.31;;;32.41;48.60
36798;BME280;22748;8.426;99.512;2023-02-17T12:19:59;100721.44;;;32.44;48.93
36798;BME280;22748;8.426;99.512;2023-02-17T12:22:42;100735.78;;;32.45;49.06
36798;BME280;22748;8.426;99.512;2023-02-17T12:25:23;100736.03;;;32.43;48.96
36798;BME280;22748;8.426;99.512;2023-02-17T12:28:08;100743.06;;;32.44;48.85
36798;BME280;22748;8.426;99.512;2023-02-17T12:30:56;100743.06;;;32.44;48.97
36798;BME280;22748;8.426;99.512;2023-02-17T12:33:57;100748.47;;;32.44;48.96
36798;BME280;22748;8.426;99.512;2023-02-17T12:36:38;100761.75;;;32.46;49.12
36798;BME280;22748;8.426;99.512;2023-02-17T12:39:15;100758.25;;;32.45;48.79
36798;BME280;22748;8.426;99.512;2023-02-17T12:41:49;100771.75;;;32.45;49.16
36798;BME280;22748;8.426;99.512;2023-02-17T12:44:27;100773.88;;;32.43;48.90
36798;BME280;22748;8.426;99.512;2023-02-17T12:47:01;100781.97;;;32.43;49.27
36798;BME280;22748;8.426;99.512;2023-02-17T12:49:41;100787.38;;;32.43;49.20
36798;BME280;22748;8.426;99.512;2023-02-17T12:52:22;100784.69;;;32.43;49.17
36798;BME280;22748;8.426;99.512;2023-02-17T12:54:56;100792.78;;;32.43;49.18
36798;BME280;22748;8.426;99.512;2023-02-17T12:57:35;100800.91;;;32.43;49.30
36798;BME280;22748;8.426;99.512;2023-02-17T13:00:16;100798.41;;;32.42;49.11
36798;BME280;22748;8.426;99.512;2023-02-17T13:02:50;100800.28;;;32.41;49.11
36798;BME280;22748;8.426;99.512;2023-02-17T13:05:28;100801.34;;;32.40;49.22
36798;BME280;22748;8.426;99.512;2023-02-17T13:08:04;100808.84;;;32.38;49.32
36798;BME280;22748;8.426;99.512;2023-02-17T13:10:38;100819.91;;;32.36;49.55
36798;BME280;22748;8.426;99.512;2023-02-17T13:13:11;100826.94;;;32.37;49.59
36798;BME280;22748;8.426;99.512;2023-02-17T13:15:43;100825.06;;;32.38;49.56
36798;BME280;22748;8.426;99.512;2023-02-17T13:18:26;100825.53;;;32.35;49.57
36798;BME280;22748;8.426;99.512;2023-02-17T13:20:59;100820.34;;;32.33;49.71
36798;BME280;22748;8.426;99.512;2023-02-17T13:23:36;100817.50;;;32.28;49.68
36798;BME280;22748;8.426;99.512;2023-02-17T13:26:22;100827.72;;;32.26;50.10
36798;BME280;22748;8.426;99.512;2023-02-17T13:29:06;100828.41;;;32.22;50.61
36798;BME280;22748;8.426;99.512;2023-02-17T13:31:47;100832.75;;;32.23;50.78
36798;BME280;22748;8.426;99.512;2023-02-17T13:34:27;100838.16;;;32.23;50.73